sensor_id;sensor_type;location;lat;lon;timestamp;P1;durP1;ratioP1;P2;durP2;ratioP2
20298;SDS011;10308;42.688;23.256;2023-08-17T00:02:23;7.70;;;6.63;;
20298;SDS011;10308;42.688;23.256;2023-08-17T00:04:51;6.32;;;5.72;;
20298;SDS011;10308;42.688;23.256;2023-08-17T00:07:18;6.88;;;6.18;;
20298;SDS011;10308;42.688;23.256;2023-08-17T00:09:50;8.90;;;5.88;;
20298;SDS011;10308;42.688;23.256;2023-08-17T00:12:17;6.60;;;5.90;;
20298;SDS011;10308;42.688;23.256;2023-08-17T00:14:45;6.68;;;6.03;;
20298;SDS011;10308;42.688;23.256;2023-08-17T00:17:18;6.05;;;5.53;;
20298;SDS011;10308;42.688;23.256;2023-08-17T00:19:45;6.88;;;6.18;;
20298;SDS011;10308;42.688;23.256;2023-08-17T00:22:12;6.78;;;5.90;;
20298;SDS011;10308;42.688;23.256;2023-08-17T00:24:41;6.82;;;6.22;;
20298;SDS011;10308;42.688;23.256;2023-08-17T00:27:09;7.32;;;5.68;;
20298;SDS011;10308;42.688;23.256;2023-08-17T00:29:36;6.30;;;5.60;;
20298;SDS011;10308;42.688;23.256;2023-08-17T00:32:04;6.03;;;5.50;;
20298;SDS011;10308;42.688;23.256;2023-08-17T00:34:38;6.40;;;5.90;;
20298;SDS011;10308;42.688;23.256;2023-08-17T00:37:06;6.45;;;5.82;;
20298;SDS011;10308;42.688;23.256;2023-08-17T00:39:35;6.85;;;5.50;;
20298;SDS011;10308;42.688;23.256;2023-08-17T00:42:03;6.05;;;5.50;;
20298;SDS011;10308;42.688;23.256;2023-08-17T00:44:31;6.00;;;5.43;;
20298;SDS011;10308;42.688;23.256;2023-08-17T00:46:59;5.47;;;5.00;;
20298;SDS011;10308;42.688;23.256;2023-08-17T00:49:27;7.07;;;5.72;;
20298;SDS011;10308;42.688;23.256;2023-08-17T00:51:58;5.60;;;4.95;;
20298;SDS011;10308;42.688;23.256;2023-08-17T00:54:25;6.35;;;5.03;;
20298;SDS011;10308;42.688;23.256;2023-08-17T00:56:54;5.05;;;4.55;;
20298;SDS011;10308;42.688;23.256;2023-08-17T00:59:22;5.07;;;4.68;;
20298;SDS011;10308;42.688;23.256;2023-08-17T01:01:51;6.70;;;5.18;;
20298;SDS011;10308;42.688;23.256;2023-08-17T01:04:19;4.97;;;4.40;;
20298;SDS011;10308;42.688;23.256;2023-08-17T01:06:50;4.85;;;4.20;;
20298;SDS011;10308;42.688;23.256;2023-08-17T01:09:19;9.25;;;4.63;;
20298;SDS011;10308;42.688;23.256;2023-08-17T01:11:47;4.82;;;4.38;;
20298;SDS011;10308;42.688;23.256;2023-08-17T01:14:19;4.90;;;4.50;;
20298;SDS011;10308;42.688;23.256;2023-08-17T01:16:52;4.78;;;4.38;;
20298;SDS011;10308;42.688;23.256;2023-08-17T01:19:24;4.60;;;4.20;;
20298;SDS011;10308;42.688;23.256;2023-08-17T01:21:54;5.50;;;4.53;;
20298;SDS011;10308;42.688;23.256;2023-08-17T01:24:26;4.97;;;4.22;;
20298;SDS011;10308;42.688;23.256;2023-08-17T01:26:53;4.55;;;4.18;;
20298;SDS011;10308;42.688;23.256;2023-08-17T01:29:21;4.72;;;4.30;;
20298;SDS011;10308;42.688;23.256;2023-08-17T01:31:53;5.70;;;4.22;;
20298;SDS011;10308;42.688;23.256;2023-08-17T01:34:22;4.45;;;4.05;;
20298;SDS011;10308;42.688;23.256;2023-08-17T01:36:56;4.97;;;4.07;;
20298;SDS011;10308;42.688;23.256;2023-08-17T01:39:32;5.13;;;4.25;;
20298;SDS011;10308;42.688;23.256;2023-08-17T01:42:02;4.68;;;4.13;;
20298;SDS011;10308;42.688;23.256;2023-08-17T01:44:31;4.60;;;4.20;;
20298;SDS011;10308;42.688;23.256;2023-08-17T01:46:59;4.47;;;4.05;;
20298;SDS011;10308;42.688;23.256;2023-08-17T01:49:27;5.25;;;3.92;;
20298;SDS011;10308;42.688;23.256;2023-08-17T01:51:56;4.82;;;4.43;;
20298;SDS011;10308;42.688;23.256;2023-08-17T01:54:24;6.38;;;4.20;;
20298;SDS011;10308;42.688;23.256;2023-08-17T01:56:53;4.85;;;4.45;;
20298;SDS011;10308;42.688;23.256;2023-08-17T01:59:21;4.50;;;3.67;;
20298;SDS011;10308;42.688;23.256;2023-08-17T02:01:49;5.25;;;4.22;;
20298;SDS011;10308;42.688;23.256;2023-08-17T02:04:17;4.40;;;4.00;;
20298;SDS011;10308;42.688;23.256;2023-08-17T02:06:45;4.72;;;4.20;;
20298;SDS011;10308;42.688;23.256;2023-08-17T02:09:16;6.05;;;4.15;;
20298;SDS011;10308;42.688;23.256;2023-08-17T02:11:43;6.28;;;4.10;;
20298;SDS011;10308;42.688;23.256;2023-08-17T02:14:15;4.45;;;4.05;;
20298;SDS011;10308;42.688;23.256;2023-08-17T02:16:43;4.45;;;4.15;;
20298;SDS011;10308;42.688;23.256;2023-08-17T02:19:11;4.45;;;4.05;;
20298;SDS011;10308;42.688;23.256;2023-08-17T02:21:39;4.13;;;3.75;;
20298;SDS011;10308;42.688;23.256;2023-08-17T02:24:06;4.43;;;4.03;;
20298;SDS011;10308;42.688;23.256;2023-08-17T02:26:37;4.40;;;4.00;;
20298;SDS011;10308;42.688;23.256;2023-08-17T02:29:06;4.85;;;4.20;;
20298;SDS011;10308;42.688;23.256;2023-08-17T02:31:36;4.90;;;4.40;;
20298;SDS011;10308;42.688;23.256;2023-08-17T02:34:04;4.82;;;3.88;;
20298;SDS011;10308;42.688;23.256;2023-08-17T02:36:32;4.38;;;3.97;;
20298;SDS011;10308;42.688;23.256;2023-08-17T02:39:00;5.25;;;4.50;;
20298;SDS011;10308;42.688;23.256;2023-08-17T02:41:29;4.72;;;4.32;;
20298;SDS011;10308;42.688;23.256;2023-08-17T02:44:00;4.43;;;4.03;;
20298;SDS011;10308;42.688;23.256;2023-08-17T02:46:28;4.45;;;4.05;;
20298;SDS011;10308;42.688;23.256;2023-08-17T02:49:03;4.85;;;4.00;;
20298;SDS011;10308;42.688;23.256;2023-08-17T02:51:31;5.82;;;4.20;;
20298;SDS011;10308;42.688;23.256;2023-08-17T02:54:00;5.10;;;3.92;;
20298;SDS011;10308;42.688;23.256;2023-08-17T02:56:27;5.93;;;3.88;;
20298;SDS011;10308;42.688;23.256;2023-08-17T02:58:57;5.82;;;4.40;;
20298;SDS011;10308;42.688;23.256;2023-08-17T03:01:27;5.30;;;4.13;;
20298;SDS011;10308;42.688;23.256;2023-08-17T03:03:56;5.40;;;4.28;;
20298;SDS011;10308;42.688;23.256;2023-08-17T03:06:25;4.40;;;4.00;;
20298;SDS011;10308;42.688;23.256;2023-08-17T03:08:54;4.22;;;3.83;;
20298;SDS011;10308;42.688;23.256;2023-08-17T03:11:22;5.15;;;3.85;;
20298;SDS011;10308;42.688;23.256;2023-08-17T03:13:53;4.30;;;3.95;;
20298;SDS011;10308;42.688;23.256;2023-08-17T03:16:27;5.00;;;4.30;;
20298;SDS011;10308;42.688;23.256;2023-08-17T03:18:56;4.80;;;4.40;;
20298;SDS011;10308;42.688;23.256;2023-08-17T03:21:25;5.07;;;4.15;;
20298;SDS011;10308;42.688;23.256;2023-08-17T03:23:53;4.45;;;4.05;;
20298;SDS011;10308;42.688;23.256;2023-08-17T03:26:21;6.07;;;4.18;;
20298;SDS011;10308;42.688;23.256;2023-08-17T03:28:51;6.10;;;4.50;;
20298;SDS011;10308;42.688;23.256;2023-08-17T03:31:21;5.90;;;4.93;;
20298;SDS011;10308;42.688;23.256;2023-08-17T03:33:48;5.32;;;4.80;;
20298;SDS011;10308;42.688;23.256;2023-08-17T03:36:18;6.10;;;4.53;;
20298;SDS011;10308;42.688;23.256;2023-08-17T03:38:49;6.60;;;5.00;;
20298;SDS011;10308;42.688;23.256;2023-08-17T03:41:17;5.00;;;4.50;;
20298;SDS011;10308;42.688;23.256;2023-08-17T03:43:45;6.70;;;4.72;;
20298;SDS011;10308;42.688;23.256;2023-08-17T03:46:14;6.68;;;4.60;;
20298;SDS011;10308;42.688;23.256;2023-08-17T03:48:42;5.18;;;4.68;;
20298;SDS011;10308;42.688;23.256;2023-08-17T03:51:10;7.63;;;4.78;;
20298;SDS011;10308;42.688;23.256;2023-08-17T03:53:36;7.35;;;5.18;;
20298;SDS011;10308;42.688;23.256;2023-08-17T03:56:10;5.70;;;5.15;;
20298;SDS011;10308;42.688;23.256;2023-08-17T03:58:41;5.68;;;5.07;;
20298;SDS011;10308;42.688;23.256;2023-08-17T04:01:11;6.93;;;5.10;;
20298;SDS011;10308;42.688;23.256;2023-08-17T04:03:39;7.32;;;5.25;;
20298;SDS011;10308;42.688;23.256;2023-08-17T04:06:05;7.13;;;5.25;;
20298;SDS011;10308;42.688;23.256;2023-08-17T04:08:36;7.22;;;5.32;;
20298;SDS011;10308;42.688;23.256;2023-08-17T04:11:06;5.78;;;5.18;;
20298;SDS011;10308;42.688;23.256;2023-08-17T04:13:35;8.55;;;4.90;;
20298;SDS011;10308;42.688;23.256;2023-08-17T04:16:03;5.95;;;4.55;;
20298;SDS011;10308;42.688;23.256;2023-08-17T04:18:30;5.95;;;5.15;;
20298;SDS011;10308;42.688;23.256;2023-08-17T04:20:58;6.03;;;5.35;;
20298;SDS011;10308;42.688;23.256;2023-08-17T04:23:26;6.60;;;5.90;;
20298;SDS011;10308;42.688;23.256;2023-08-17T04:25:54;7.07;;;5.70;;
20298;SDS011;10308;42.688;23.256;2023-08-17T04:28:22;7.93;;;5.35;;
20298;SDS011;10308;42.688;23.256;2023-08-17T04:30:50;6.55;;;5.90;;
20298;SDS011;10308;42.688;23.256;2023-08-17T04:33:18;7.85;;;5.40;;
20298;SDS011;10308;42.688;23.256;2023-08-17T04:35:46;5.85;;;4.95;;
20298;SDS011;10308;42.688;23.256;2023-08-17T04:38:17;6.50;;;4.57;;
20298;SDS011;10308;42.688;23.256;2023-08-17T04:40:46;7.45;;;5.28;;
20298;SDS011;10308;42.688;23.256;2023-08-17T04:43:17;5.75;;;5.22;;
20298;SDS011;10308;42.688;23.256;2023-08-17T04:45:49;8.13;;;5.60;;
20298;SDS011;10308;42.688;23.256;2023-08-17T04:48:18;6.00;;;5.40;;
20298;SDS011;10308;42.688;23.256;2023-08-17T04:50:46;8.13;;;5.50;;
20298;SDS011;10308;42.688;23.256;2023-08-17T04:53:16;5.63;;;4.97;;
20298;SDS011;10308;42.688;23.256;2023-08-17T04:55:42;7.75;;;5.45;;
20298;SDS011;10308;42.688;23.256;2023-08-17T04:58:10;7.95;;;5.15;;
20298;SDS011;10308;42.688;23.256;2023-08-17T05:00:38;5.85;;;5.25;;
20298;SDS011;10308;42.688;23.256;2023-08-17T05:03:09;5.85;;;4.97;;
20298;SDS011;10308;42.688;23.256;2023-08-17T05:05:38;8.60;;;5.60;;
20298;SDS011;10308;42.688;23.256;2023-08-17T05:08:09;6.80;;;5.18;;
20298;SDS011;10308;42.688;23.256;2023-08-17T05:10:37;7.53;;;6.20;;
20298;SDS011;10308;42.688;23.256;2023-08-17T05:13:05;5.88;;;5.32;;
20298;SDS011;10308;42.688;23.256;2023-08-17T05:15:35;8.32;;;6.18;;
20298;SDS011;10308;42.688;23.256;2023-08-17T05:18:03;6.40;;;5.25;;
20298;SDS011;10308;42.688;23.256;2023-08-17T05:20:33;7.97;;;5.32;;
20298;SDS011;10308;42.688;23.256;2023-08-17T05:23:01;7.15;;;5.03;;
20298;SDS011;10308;42.688;23.256;2023-08-17T05:25:30;7.25;;;4.97;;
20298;SDS011;10308;42.688;23.256;2023-08-17T05:27:59;5.28;;;4.30;;
20298;SDS011;10308;42.688;23.256;2023-08-17T05:30:27;5.68;;;4.78;;
20298;SDS011;10308;42.688;23.256;2023-08-17T05:32:55;5.78;;;4.38;;
20298;SDS011;10308;42.688;23.256;2023-08-17T05:35:24;5.43;;;4.93;;
20298;SDS011;10308;42.688;23.256;2023-08-17T05:37:53;7.18;;;4.20;;
20298;SDS011;10308;42.688;23.256;2023-08-17T05:40:24;5.07;;;4.57;;
20298;SDS011;10308;42.688;23.256;2023-08-17T05:42:52;6.22;;;4.30;;
20298;SDS011;10308;42.688;23.256;2023-08-17T05:45:18;5.20;;;4.45;;
20298;SDS011;10308;42.688;23.256;2023-08-17T05:47:46;4.90;;;4.50;;
20298;SDS011;10308;42.688;23.256;2023-08-17T05:50:17;5.32;;;4.40;;
20298;SDS011;10308;42.688;23.256;2023-08-17T05:52:45;5.35;;;4.85;;
20298;SDS011;10308;42.688;23.256;2023-08-17T05:55:21;4.03;;;3.72;;
20298;SDS011;10308;42.688;23.256;2023-08-17T05:57:51;8.13;;;4.65;;
20298;SDS011;10308;42.688;23.256;2023-08-17T06:00:18;5.30;;;4.35;;
20298;SDS011;10308;42.688;23.256;2023-08-17T06:02:46;5.45;;;3.97;;
20298;SDS011;10308;42.688;23.256;2023-08-17T06:05:17;6.03;;;4.20;;
20298;SDS011;10308;42.688;23.256;2023-08-17T06:07:44;4.70;;;4.30;;
20298;SDS011;10308;42.688;23.256;2023-08-17T06:10:12;4.45;;;4.05;;
20298;SDS011;10308;42.688;23.256;2023-08-17T06:12:44;4.57;;;4.13;;
20298;SDS011;10308;42.688;23.256;2023-08-17T06:15:13;6.07;;;4.30;;
20298;SDS011;10308;42.688;23.256;2023-08-17T06:17:40;6.47;;;4.50;;
20298;SDS011;10308;42.688;23.256;2023-08-17T06:20:10;5.50;;;4.13;;
20298;SDS011;10308;42.688;23.256;2023-08-17T06:22:40;9.23;;;4.60;;
20298;SDS011;10308;42.688;23.256;2023-08-17T06:25:08;5.25;;;4.72;;
20298;SDS011;10308;42.688;23.256;2023-08-17T06:27:36;5.40;;;4.90;;
20298;SDS011;10308;42.688;23.256;2023-08-17T06:30:06;6.70;;;4.82;;
20298;SDS011;10308;42.688;23.256;2023-08-17T06:32:34;6.45;;;4.80;;
20298;SDS011;10308;42.688;23.256;2023-08-17T06:35:02;5.38;;;4.90;;
20298;SDS011;10308;42.688;23.256;2023-08-17T06:37:31;5.60;;;5.07;;
20298;SDS011;10308;42.688;23.256;2023-08-17T06:39:59;5.55;;;5.05;;
20298;SDS011;10308;42.688;23.256;2023-08-17T06:42:27;6.25;;;5.60;;
20298;SDS011;10308;42.688;23.256;2023-08-17T06:44:58;5.53;;;5.03;;
20298;SDS011;10308;42.688;23.256;2023-08-17T06:47:28;6.63;;;5.35;;
20298;SDS011;10308;42.688;23.256;2023-08-17T06:49:58;6.25;;;5.65;;
20298;SDS011;10308;42.688;23.256;2023-08-17T06:52:26;6.80;;;5.28;;
20298;SDS011;10308;42.688;23.256;2023-08-17T06:54:54;6.47;;;5.88;;
20298;SDS011;10308;42.688;23.256;2023-08-17T06:57:22;5.75;;;5.25;;
20298;SDS011;10308;42.688;23.256;2023-08-17T06:59:50;6.63;;;6.00;;
20298;SDS011;10308;42.688;23.256;2023-08-17T07:02:19;6.32;;;5.35;;
20298;SDS011;10308;42.688;23.256;2023-08-17T07:04:52;7.50;;;6.00;;
20298;SDS011;10308;42.688;23.256;2023-08-17T07:07:20;5.63;;;5.20;;
20298;SDS011;10308;42.688;23.256;2023-08-17T07:09:47;6.22;;;5.70;;
20298;SDS011;10308;42.688;23.256;2023-08-17T07:12:14;6.18;;;5.68;;
20298;SDS011;10308;42.688;23.256;2023-08-17T07:14:45;6.35;;;5.57;;
20298;SDS011;10308;42.688;23.256;2023-08-17T07:17:13;6.15;;;5.65;;
20298;SDS011;10308;42.688;23.256;2023-08-17T07:19:40;5.63;;;5.10;;
20298;SDS011;10308;42.688;23.256;2023-08-17T07:22:11;5.95;;;5.35;;
20298;SDS011;10308;42.688;23.256;2023-08-17T07:24:38;5.82;;;5.05;;
20298;SDS011;10308;42.688;23.256;2023-08-17T07:27:08;5.47;;;4.90;;
20298;SDS011;10308;42.688;23.256;2023-08-17T07:29:36;5.80;;;4.93;;
20298;SDS011;10308;42.688;23.256;2023-08-17T07:32:05;5.32;;;4.65;;
20298;SDS011;10308;42.688;23.256;2023-08-17T07:34:34;5.05;;;4.65;;
20298;SDS011;10308;42.688;23.256;2023-08-17T07:37:03;6.38;;;5.25;;
20298;SDS011;10308;42.688;23.256;2023-08-17T07:39:31;7.85;;;5.10;;
20298;SDS011;10308;42.688;23.256;2023-08-17T07:41:58;4.93;;;4.10;;
20298;SDS011;10308;42.688;23.256;2023-08-17T07:44:26;5.10;;;4.60;;
20298;SDS011;10308;42.688;23.256;2023-08-17T07:47:00;3.83;;;3.53;;
20298;SDS011;10308;42.688;23.256;2023-08-17T07:49:28;4.47;;;4.07;;
20298;SDS011;10308;42.688;23.256;2023-08-17T07:51:56;4.70;;;3.88;;
20298;SDS011;10308;42.688;23.256;2023-08-17T07:54:23;5.05;;;4.00;;
20298;SDS011;10308;42.688;23.256;2023-08-17T07:56:52;4.20;;;3.80;;
20298;SDS011;10308;42.688;23.256;2023-08-17T07:59:19;5.32;;;3.90;;
20298;SDS011;10308;42.688;23.256;2023-08-17T08:01:46;6.47;;;4.60;;
20298;SDS011;10308;42.688;23.256;2023-08-17T08:04:13;8.38;;;4.25;;
20298;SDS011;10308;42.688;23.256;2023-08-17T08:06:41;5.15;;;4.70;;
20298;SDS011;10308;42.688;23.256;2023-08-17T08:09:09;5.05;;;4.55;;
20298;SDS011;10308;42.688;23.256;2023-08-17T08:11:36;4.30;;;3.90;;
20298;SDS011;10308;42.688;23.256;2023-08-17T08:14:06;4.80;;;3.78;;
20298;SDS011;10308;42.688;23.256;2023-08-17T08:16:32;5.88;;;3.78;;
20298;SDS011;10308;42.688;23.256;2023-08-17T08:19:01;4.13;;;3.72;;
20298;SDS011;10308;42.688;23.256;2023-08-17T08:21:28;4.22;;;3.83;;
20298;SDS011;10308;42.688;23.256;2023-08-17T08:23:56;4.50;;;3.70;;
20298;SDS011;10308;42.688;23.256;2023-08-17T08:26:24;4.45;;;3.95;;
20298;SDS011;10308;42.688;23.256;2023-08-17T08:28:52;4.32;;;3.92;;
20298;SDS011;10308;42.688;23.256;2023-08-17T08:31:21;5.22;;;4.43;;
20298;SDS011;10308;42.688;23.256;2023-08-17T08:33:49;4.57;;;4.05;;
20298;SDS011;10308;42.688;23.256;2023-08-17T08:36:19;5.55;;;4.03;;
20298;SDS011;10308;42.688;23.256;2023-08-17T08:38:49;4.75;;;4.25;;
20298;SDS011;10308;42.688;23.256;2023-08-17T08:41:18;3.88;;;3.58;;
20298;SDS011;10308;42.688;23.256;2023-08-17T08:43:46;4.28;;;3.88;;
20298;SDS011;10308;42.688;23.256;2023-08-17T08:46:17;4.72;;;4.10;;
20298;SDS011;10308;42.688;23.256;2023-08-17T08:48:50;5.65;;;3.97;;
20298;SDS011;10308;42.688;23.256;2023-08-17T08:51:20;4.60;;;3.92;;
20298;SDS011;10308;42.688;23.256;2023-08-17T08:53:50;4.50;;;4.10;;
20298;SDS011;10308;42.688;23.256;2023-08-17T08:56:30;5.32;;;4.30;;
20298;SDS011;10308;42.688;23.256;2023-08-17T08:58:58;5.57;;;4.00;;
20298;SDS011;10308;42.688;23.256;2023-08-17T09:01:27;5.53;;;4.25;;
20298;SDS011;10308;42.688;23.256;2023-08-17T09:04:00;10.25;;;4.10;;
20298;SDS011;10308;42.688;23.256;2023-08-17T09:06:29;4.80;;;4.30;;
20298;SDS011;10308;42.688;23.256;2023-08-17T09:09:00;4.47;;;4.00;;
20298;SDS011;10308;42.688;23.256;2023-08-17T09:11:30;4.25;;;3.88;;
20298;SDS011;10308;42.688;23.256;2023-08-17T09:13:57;4.85;;;4.35;;
20298;SDS011;10308;42.688;23.256;2023-08-17T09:16:26;4.07;;;3.70;;
20298;SDS011;10308;42.688;23.256;2023-08-17T09:18:57;7.72;;;4.28;;
20298;SDS011;10308;42.688;23.256;2023-08-17T09:21:25;4.85;;;4.20;;
20298;SDS011;10308;42.688;23.256;2023-08-17T09:23:54;5.10;;;4.05;;
20298;SDS011;10308;42.688;23.256;2023-08-17T09:26:22;4.85;;;4.10;;
20298;SDS011;10308;42.688;23.256;2023-08-17T09:28:53;4.30;;;3.90;;
20298;SDS011;10308;42.688;23.256;2023-08-17T09:31:23;4.75;;;3.65;;
20298;SDS011;10308;42.688;23.256;2023-08-17T09:33:51;5.22;;;3.85;;
20298;SDS011;10308;42.688;23.256;2023-08-17T09:36:20;4.60;;;4.10;;
20298;SDS011;10308;42.688;23.256;2023-08-17T09:38:51;4.25;;;3.85;;
20298;SDS011;10308;42.688;23.256;2023-08-17T09:41:23;4.15;;;3.85;;
20298;SDS011;10308;42.688;23.256;2023-08-17T09:43:54;4.00;;;3.55;;
20298;SDS011;10308;42.688;23.256;2023-08-17T09:46:21;3.50;;;3.20;;
20298;SDS011;10308;42.688;23.256;2023-08-17T09:48:48;4.35;;;3.80;;
20298;SDS011;10308;42.688;23.256;2023-08-17T09:51:16;6.07;;;3.20;;
20298;SDS011;10308;42.688;23.256;2023-08-17T09:53:51;3.80;;;3.50;;
20298;SDS011;10308;42.688;23.256;2023-08-17T09:56:20;3.78;;;3.45;;
20298;SDS011;10308;42.688;23.256;2023-08-17T09:58:51;3.85;;;3.47;;
20298;SDS011;10308;42.688;23.256;2023-08-17T10:01:19;3.90;;;3.08;;
20298;SDS011;10308;42.688;23.256;2023-08-17T10:03:48;3.88;;;3.58;;
20298;SDS011;10308;42.688;23.256;2023-08-17T10:06:19;4.25;;;3.42;;
20298;SDS011;10308;42.688;23.256;2023-08-17T10:08:54;3.78;;;3.35;;
20298;SDS011;10308;42.688;23.256;2023-08-17T10:11:24;4.15;;;3.85;;
20298;SDS011;10308;42.688;23.256;2023-08-17T10:13:55;3.47;;;3.17;;
20298;SDS011;10308;42.688;23.256;2023-08-17T10:16:33;4.47;;;3.30;;
20298;SDS011;10308;42.688;23.256;2023-08-17T10:19:05;3.95;;;3.53;;
20298;SDS011;10308;42.688;23.256;2023-08-17T10:21:36;3.50;;;3.20;;
20298;SDS011;10308;42.688;23.256;2023-08-17T10:24:08;3.13;;;2.50;;
20298;SDS011;10308;42.688;23.256;2023-08-17T10:26:35;4.13;;;3.00;;
20298;SDS011;10308;42.688;23.256;2023-08-17T10:29:06;3.67;;;2.80;;
20298;SDS011;10308;42.688;23.256;2023-08-17T10:31:34;3.70;;;2.88;;
20298;SDS011;10308;42.688;23.256;2023-08-17T10:34:02;3.80;;;2.60;;
20298;SDS011;10308;42.688;23.256;2023-08-17T10:36:30;5.57;;;3.10;;
20298;SDS011;10308;42.688;23.256;2023-08-17T10:41:56;3.83;;;3.45;;
20298;SDS011;10308;42.688;23.256;2023-08-17T10:44:37;3.63;;;3.03;;
20298;SDS011;10308;42.688;23.256;2023-08-17T10:47:20;3.20;;;2.90;;
20298;SDS011;10308;42.688;23.256;2023-08-17T10:49:52;3.35;;;3.05;;
20298;SDS011;10308;42.688;23.256;2023-08-17T10:52:29;3.42;;;3.13;;
20298;SDS011;10308;42.688;23.256;2023-08-17T10:55:04;3.40;;;3.10;;
20298;SDS011;10308;42.688;23.256;2023-08-17T10:57:35;3.33;;;3.05;;
20298;SDS011;10308;42.688;23.256;2023-08-17T11:00:05;3.30;;;3.00;;
20298;SDS011;10308;42.688;23.256;2023-08-17T11:02:48;3.75;;;3.10;;
20298;SDS011;10308;42.688;23.256;2023-08-17T11:05:35;2.92;;;2.72;;
20298;SDS011;10308;42.688;23.256;2023-08-17T11:08:08;3.47;;;2.83;;
20298;SDS011;10308;42.688;23.256;2023-08-17T11:10:39;3.20;;;3.00;;
20298;SDS011;10308;42.688;23.256;2023-08-17T11:13:08;3.88;;;3.22;;
20298;SDS011;10308;42.688;23.256;2023-08-17T11:15:37;3.85;;;3.55;;
20298;SDS011;10308;42.688;23.256;2023-08-17T11:18:09;3.20;;;3.00;;
20298;SDS011;10308;42.688;23.256;2023-08-17T11:20:38;4.93;;;3.13;;
20298;SDS011;10308;42.688;23.256;2023-08-17T11:23:07;4.78;;;3.00;;
20298;SDS011;10308;42.688;23.256;2023-08-17T11:25:35;4.50;;;3.22;;
20298;SDS011;10308;42.688;23.256;2023-08-17T11:28:07;6.03;;;4.28;;
20298;SDS011;10308;42.688;23.256;2023-08-17T11:30:36;3.88;;;3.15;;
20298;SDS011;10308;42.688;23.256;2023-08-17T11:33:06;4.38;;;3.20;;
20298;SDS011;10308;42.688;23.256;2023-08-17T11:35:34;3.53;;;3.22;;
20298;SDS011;10308;42.688;23.256;2023-08-17T11:38:02;3.97;;;3.50;;
20298;SDS011;10308;42.688;23.256;2023-08-17T11:40:32;6.85;;;4.10;;
20298;SDS011;10308;42.688;23.256;2023-08-17T11:43:01;4.57;;;3.70;;
20298;SDS011;10308;42.688;23.256;2023-08-17T11:45:32;4.50;;;4.07;;
20298;SDS011;10308;42.688;23.256;2023-08-17T11:47:59;4.25;;;3.85;;
20298;SDS011;10308;42.688;23.256;2023-08-17T11:50:28;3.78;;;3.47;;
20298;SDS011;10308;42.688;23.256;2023-08-17T11:52:58;4.10;;;3.78;;
20298;SDS011;10308;42.688;23.256;2023-08-17T11:55:27;3.83;;;3.53;;
20298;SDS011;10308;42.688;23.256;2023-08-17T11:57:56;4.30;;;3.90;;
20298;SDS011;10308;42.688;23.256;2023-08-17T12:00:23;3.88;;;3.58;;
20298;SDS011;10308;42.688;23.256;2023-08-17T12:02:57;4.07;;;3.67;;
20298;SDS011;10308;42.688;23.256;2023-08-17T12:05:25;3.55;;;3.22;;
20298;SDS011;10308;42.688;23.256;2023-08-17T12:07:55;3.97;;;3.60;;
20298;SDS011;10308;42.688;23.256;2023-08-17T12:10:22;3.40;;;3.15;;
20298;SDS011;10308;42.688;23.256;2023-08-17T12:12:50;3.85;;;3.55;;
20298;SDS011;10308;42.688;23.256;2023-08-17T12:15:17;3.63;;;3.33;;
20298;SDS011;10308;42.688;23.256;2023-08-17T12:17:47;4.45;;;3.33;;
20298;SDS011;10308;42.688;23.256;2023-08-17T12:20:20;4.50;;;3.55;;
20298;SDS011;10308;42.688;23.256;2023-08-17T12:22:48;4.40;;;4.00;;
20298;SDS011;10308;42.688;23.256;2023-08-17T12:25:20;4.20;;;3.80;;
20298;SDS011;10308;42.688;23.256;2023-08-17T12:27:48;3.95;;;3.47;;
20298;SDS011;10308;42.688;23.256;2023-08-17T12:30:24;4.97;;;3.65;;
20298;SDS011;10308;42.688;23.256;2023-08-17T12:32:55;3.75;;;3.45;;
20298;SDS011;10308;42.688;23.256;2023-08-17T12:35:24;5.57;;;4.50;;
20298;SDS011;10308;42.688;23.256;2023-08-17T12:37:53;5.38;;;4.90;;
20298;SDS011;10308;42.688;23.256;2023-08-17T12:40:23;5.53;;;5.03;;
20298;SDS011;10308;42.688;23.256;2023-08-17T12:42:51;5.40;;;4.75;;
20298;SDS011;10308;42.688;23.256;2023-08-17T12:45:19;6.47;;;5.32;;
20298;SDS011;10308;42.688;23.256;2023-08-17T12:47:48;5.65;;;4.97;;
20298;SDS011;10308;42.688;23.256;2023-08-17T12:50:18;5.68;;;4.97;;
20298;SDS011;10308;42.688;23.256;2023-08-17T12:52:47;7.45;;;5.35;;
20298;SDS011;10308;42.688;23.256;2023-08-17T12:55:15;5.45;;;5.05;;
20298;SDS011;10308;42.688;23.256;2023-08-17T12:57:43;5.65;;;4.82;;
20298;SDS011;10308;42.688;23.256;2023-08-17T13:00:12;5.85;;;5.35;;
20298;SDS011;10308;42.688;23.256;2023-08-17T13:02:40;6.47;;;5.75;;
20298;SDS011;10308;42.688;23.256;2023-08-17T13:05:08;5.65;;;5.25;;
20298;SDS011;10308;42.688;23.256;2023-08-17T13:07:36;5.68;;;5.28;;
20298;SDS011;10308;42.688;23.256;2023-08-17T13:10:06;6.22;;;5.40;;
20298;SDS011;10308;42.688;23.256;2023-08-17T13:12:34;5.60;;;5.05;;
20298;SDS011;10308;42.688;23.256;2023-08-17T13:15:03;6.82;;;5.18;;
20298;SDS011;10308;42.688;23.256;2023-08-17T13:17:31;5.55;;;5.05;;
20298;SDS011;10308;42.688;23.256;2023-08-17T13:20:01;6.00;;;5.50;;
20298;SDS011;10308;42.688;23.256;2023-08-17T13:22:31;5.90;;;5.25;;
20298;SDS011;10308;42.688;23.256;2023-08-17T13:24:59;5.80;;;5.30;;
20298;SDS011;10308;42.688;23.256;2023-08-17T13:27:29;6.22;;;5.00;;
20298;SDS011;10308;42.688;23.256;2023-08-17T13:29:58;5.70;;;5.30;;
20298;SDS011;10308;42.688;23.256;2023-08-17T13:32:27;6.07;;;5.63;;
20298;SDS011;10308;42.688;23.256;2023-08-17T13:34:55;6.35;;;5.18;;
20298;SDS011;10308;42.688;23.256;2023-08-17T13:37:21;5.50;;;5.00;;
20298;SDS011;10308;42.688;23.256;2023-08-17T13:39:50;5.45;;;5.00;;
20298;SDS011;10308;42.688;23.256;2023-08-17T13:42:18;7.53;;;5.05;;
20298;SDS011;10308;42.688;23.256;2023-08-17T13:44:46;5.63;;;5.22;;
20298;SDS011;10308;42.688;23.256;2023-08-17T13:47:14;5.80;;;5.30;;
20298;SDS011;10308;42.688;23.256;2023-08-17T13:49:42;5.53;;;5.13;;
20298;SDS011;10308;42.688;23.256;2023-08-17T13:52:08;5.55;;;5.03;;
20298;SDS011;10308;42.688;23.256;2023-08-17T13:54:37;5.70;;;5.20;;
20298;SDS011;10308;42.688;23.256;2023-08-17T13:57:04;5.60;;;5.10;;
20298;SDS011;10308;42.688;23.256;2023-08-17T13:59:33;6.03;;;5.53;;
20298;SDS011;10308;42.688;23.256;2023-08-17T14:02:06;5.15;;;4.75;;
20298;SDS011;10308;42.688;23.256;2023-08-17T14:04:32;5.53;;;5.03;;
20298;SDS011;10308;42.688;23.256;2023-08-17T14:07:00;6.43;;;5.40;;
20298;SDS011;10308;42.688;23.256;2023-08-17T14:09:27;5.50;;;5.05;;
20298;SDS011;10308;42.688;23.256;2023-08-17T14:11:54;5.60;;;5.10;;
20298;SDS011;10308;42.688;23.256;2023-08-17T14:14:22;5.35;;;4.95;;
20298;SDS011;10308;42.688;23.256;2023-08-17T14:16:50;5.32;;;4.82;;
20298;SDS011;10308;42.688;23.256;2023-08-17T14:19:19;5.00;;;4.60;;
20298;SDS011;10308;42.688;23.256;2023-08-17T14:21:46;5.05;;;4.53;;
20298;SDS011;10308;42.688;23.256;2023-08-17T14:24:14;5.38;;;4.85;;
20298;SDS011;10308;42.688;23.256;2023-08-17T14:26:42;4.90;;;4.32;;
20298;SDS011;10308;42.688;23.256;2023-08-17T14:29:13;5.50;;;5.03;;
20298;SDS011;10308;42.688;23.256;2023-08-17T14:31:43;5.15;;;4.68;;
20298;SDS011;10308;42.688;23.256;2023-08-17T14:34:11;5.45;;;4.90;;
20298;SDS011;10308;42.688;23.256;2023-08-17T14:36:41;5.00;;;4.60;;
20298;SDS011;10308;42.688;23.256;2023-08-17T14:39:09;6.15;;;4.78;;
20298;SDS011;10308;42.688;23.256;2023-08-17T14:41:37;5.20;;;4.70;;
20298;SDS011;10308;42.688;23.256;2023-08-17T14:44:06;5.43;;;4.93;;
20298;SDS011;10308;42.688;23.256;2023-08-17T14:46:32;6.65;;;4.40;;
20298;SDS011;10308;42.688;23.256;2023-08-17T14:49:01;5.93;;;4.70;;